Aérodrome :
LOGIN :

S'inscrire | Disclaimer

   EN    FR    IT 

 










Légende :    VFR   VFR Marginal   IFR   IFR Intensif   IFR Très Intensif
Visi : 
Plafond : 
>= 8 km
>= 3000ft
5 à 8 km
1000 à 3000 ft
1500m à 5 km
500 à 1000 ft
800 à 1500m
200 à 500 ft
< 800m
< 200 ft
Symboles :   Orages  Brouillard  Fortes neiges  Fortes précipitations  Vent > 20 kt
SIGMETs :   Divers  Orages  Givrage  Turbulence  Onde Orograph.  Cendres Volcan.







- Altitude de l'aérodrome : 13 ft
- Code IATA : GOA


LIMJ - Genoa Cristoforo Colombo

DERNIER METAR :
  • 172220Z 03006KT 320V070 9999 SCT028 BKN060 19/13 Q1016

METARs EXPIRÉS :
  • 172150Z 03006KT 010V080 9999 SCT028 BKN060 19/13 Q1016
  • 172120Z 03008KT 360V100 9999 FEW028 BKN060 19/13 Q1017
  • 172050Z 04007KT 020V080 9999 FEW028 BKN060 19/13 Q1017
  • 172020Z 04006KT 350V080 9999 SCT028 BKN050 19/13 Q1017
  • 171950Z 04006KT 360V090 9999 SCT028 BKN050 19/13 Q1017

TAF TAF LIMJ
Valide du 17 à 18h jusqu'au 18 à 18h UTC


171700Z 1718/1818 01010KT 9999 SCT050
Pas de NOTAMs connus pour ce terrain.



MET'MAP, la Météo Aéronautique d'un coup d'oeil ! - Copyright ORBIFLY Décembre 2007 - Disclaimer

ORBIFLY MET'MAP TEAM :

Programmation & Développement : Alexandra Zaïnal
Conception & Développement : Baudouin d'Aumeries
Co-Programmation & Développement : Marc-Olivier Méhu
Soutien technique & logistique : Manuel Goepfert

Contact : metmap@orbifly.com




SOURCES & CREDITS :

   NOAA